createdAt,value
2022-09-14T00:01:44.350Z,10.63
2022-09-14T00:04:45.755Z,9.82
2022-09-14T00:07:47.057Z,11.20
2022-09-14T00:10:48.608Z,14.60
2022-09-14T00:13:50.358Z,14.75
2022-09-14T00:16:52.118Z,12.32
2022-09-14T00:19:53.676Z,10.93
2022-09-14T00:22:54.922Z,14.70
2022-09-14T00:26:01.897Z,15.55
2022-09-14T00:29:04.694Z,12.48
2022-09-14T00:32:06.140Z,12.40
2022-09-14T00:35:07.668Z,13.45
2022-09-14T00:38:09.773Z,15.52
2022-09-14T00:41:12.356Z,13.93
2022-09-14T00:44:13.566Z,13.02
2022-09-14T00:47:16.367Z,15.75
2022-09-14T00:50:18.082Z,15.60
2022-09-14T00:53:19.351Z,14.15
2022-09-14T00:56:20.875Z,12.88
2022-09-14T00:59:24.047Z,14.55
2022-09-14T01:02:27.114Z,10.52
2022-09-14T01:05:40.316Z,11.52
2022-09-14T01:08:59.856Z,12.93
2022-09-14T01:12:10.186Z,13.68
2022-09-14T01:15:14.464Z,13.98
2022-09-14T01:18:18.875Z,16.02
2022-09-14T01:21:23.751Z,14.48
2022-09-14T01:24:31.325Z,13.75
2022-09-14T01:27:41.545Z,12.85
2022-09-14T01:30:43.883Z,16.52
2022-09-14T01:33:54.404Z,13.52
2022-09-14T01:36:59.135Z,12.57
2022-09-14T01:40:03.629Z,16.30
2022-09-14T01:43:10.885Z,13.48
2022-09-14T01:46:14.858Z,11.60
2022-09-14T01:49:18.966Z,9.65
2022-09-14T01:52:23.690Z,12.35
2022-09-14T01:55:31.621Z,12.05
2022-09-14T01:58:46.977Z,13.27
2022-09-14T02:01:50.664Z,12.52
2022-09-14T02:04:57.856Z,13.27
2022-09-14T02:07:59.491Z,13.30
2022-09-14T02:11:01.177Z,16.33
2022-09-14T02:14:02.477Z,15.60
2022-09-14T02:17:03.932Z,13.95
2022-09-14T02:20:07.210Z,12.10
2022-09-14T02:23:08.565Z,14.57
2022-09-14T02:26:10.686Z,14.80
2022-09-14T02:29:12.050Z,15.38
2022-09-14T02:32:30.413Z,17.17
2022-09-14T02:35:37.568Z,17.40
2022-09-14T02:39:02.157Z,16.80
2022-09-14T02:42:22.111Z,15.00
2022-09-14T02:45:39.082Z,16.35
2022-09-14T02:48:58.988Z,16.15
2022-09-14T02:52:15.697Z,15.10
2022-09-14T02:55:19.114Z,14.95
2022-09-14T02:58:20.361Z,16.10
2022-09-14T03:01:22.681Z,18.17
2022-09-14T03:04:24.031Z,18.73
2022-09-14T03:07:25.269Z,18.77
2022-09-14T03:10:27.255Z,17.83
2022-09-14T03:13:28.491Z,15.15
2022-09-14T03:16:29.869Z,17.88
2022-09-14T03:19:31.195Z,15.55
2022-09-14T03:22:32.775Z,19.88
2022-09-14T03:25:36.934Z,21.50
2022-09-14T03:31:39.441Z,20.00
2022-09-14T03:34:41.115Z,21.40
2022-09-14T03:37:43.246Z,17.17
2022-09-14T03:40:44.469Z,18.65
2022-09-14T03:43:46.082Z,18.50
2022-09-14T03:46:47.438Z,19.35
2022-09-14T03:49:48.727Z,19.70
2022-09-14T03:52:49.999Z,19.27
2022-09-14T03:55:51.222Z,22.67
2022-09-14T03:58:52.457Z,20.48
2022-09-14T04:01:53.787Z,17.88
2022-09-14T04:04:55.095Z,18.13
2022-09-14T04:07:56.398Z,16.92
2022-09-14T04:10:57.646Z,18.30
2022-09-14T04:14:02.764Z,15.88
2022-09-14T04:17:04.139Z,15.35
2022-09-14T04:20:05.571Z,16.38
2022-09-14T04:23:06.817Z,18.33
2022-09-14T04:26:12.303Z,16.15
2022-09-14T04:29:14.439Z,17.08
2022-09-14T04:32:15.812Z,17.35
2022-09-14T04:35:17.055Z,15.32
2022-09-14T04:38:18.273Z,16.00
2022-09-14T04:41:20.909Z,15.23
2022-09-14T04:44:22.142Z,15.18
2022-09-14T04:47:23.383Z,10.80
2022-09-14T04:50:24.616Z,10.98
2022-09-14T04:53:25.857Z,9.65
2022-09-14T04:56:27.561Z,6.65
2022-09-14T04:59:28.829Z,7.00
2022-09-14T05:02:31.875Z,7.70
2022-09-14T05:05:35.094Z,6.97
2022-09-14T05:08:38.482Z,6.78
2022-09-14T05:11:39.958Z,6.22
2022-09-14T05:14:41.207Z,6.32
2022-09-14T05:17:42.434Z,6.90
2022-09-14T05:20:43.913Z,6.15
2022-09-14T05:23:45.541Z,9.40
2022-09-14T05:26:47.220Z,7.13
2022-09-14T05:29:48.438Z,7.20
2022-09-14T05:32:49.667Z,6.68
2022-09-14T05:35:51.264Z,7.28
2022-09-14T05:38:52.510Z,6.82
2022-09-14T05:41:53.968Z,9.15
2022-09-14T05:44:55.212Z,8.25
2022-09-14T05:48:00.058Z,7.53
2022-09-14T05:51:02.479Z,7.55
2022-09-14T05:54:09.303Z,8.43
2022-09-14T05:57:10.585Z,6.75
2022-09-14T06:00:12.102Z,6.40
2022-09-14T06:03:13.323Z,7.32
2022-09-14T06:06:15.745Z,6.88
2022-09-14T06:09:16.970Z,9.05
2022-09-14T06:12:18.652Z,5.63
2022-09-14T06:15:19.911Z,8.02
2022-09-14T06:18:21.174Z,6.57
2022-09-14T06:21:22.766Z,6.72
2022-09-14T06:24:24.263Z,6.03
2022-09-14T06:27:25.618Z,7.40
2022-09-14T06:30:27.640Z,7.40
2022-09-14T06:33:28.915Z,6.40
2022-09-14T06:36:30.159Z,7.22
2022-09-14T06:39:31.627Z,7.95
2022-09-14T06:42:32.890Z,6.50
2022-09-14T06:45:34.150Z,8.38
2022-09-14T06:48:36.769Z,7.25
2022-09-14T06:51:39.462Z,10.20
2022-09-14T06:54:40.766Z,8.07
2022-09-14T06:57:43.130Z,6.78
2022-09-14T07:00:44.765Z,6.72
2022-09-14T07:03:47.059Z,6.85
2022-09-14T07:06:49.726Z,6.13
2022-09-14T07:09:50.965Z,9.65
2022-09-14T07:12:52.236Z,6.95
2022-09-14T07:15:53.560Z,7.25
2022-09-14T07:18:55.657Z,6.90
2022-09-14T07:21:57.979Z,7.80
2022-09-14T07:24:59.232Z,8.45
2022-09-14T07:28:01.230Z,9.63
2022-09-14T07:31:03.260Z,8.55
2022-09-14T07:34:04.965Z,7.30
2022-09-14T07:37:06.271Z,6.43
2022-09-14T07:40:07.985Z,7.10
2022-09-14T07:43:09.501Z,7.45
2022-09-14T07:46:10.781Z,8.48
2022-09-14T07:49:12.575Z,8.55
2022-09-14T07:52:13.854Z,9.82
2022-09-14T07:55:15.130Z,9.13
2022-09-14T07:58:16.404Z,5.80
2022-09-14T08:01:17.881Z,6.63
2022-09-14T08:04:19.252Z,6.40
2022-09-14T08:07:20.547Z,6.95
2022-09-14T08:10:22.165Z,5.47
2022-09-14T08:13:23.481Z,6.05
2022-09-14T08:16:25.720Z,7.43
2022-09-14T08:19:27.024Z,5.03
2022-09-14T08:22:28.287Z,7.50
2022-09-14T08:25:29.549Z,5.65
2022-09-14T08:28:30.888Z,5.72
2022-09-14T08:31:35.899Z,5.00
2022-09-14T08:34:37.238Z,5.40
2022-09-14T08:37:38.477Z,5.13
2022-09-14T08:40:43.523Z,6.95
2022-09-14T08:43:44.886Z,6.10
2022-09-14T08:46:46.793Z,5.40
2022-09-14T08:49:57.575Z,5.82
2022-09-14T08:52:59.510Z,5.07
2022-09-14T08:56:02.512Z,6.05
2022-09-14T08:59:03.715Z,5.75
2022-09-14T09:02:10.832Z,5.60
2022-09-14T09:05:35.235Z,7.22
2022-09-14T09:08:42.252Z,6.28
2022-09-14T09:11:46.485Z,7.25
2022-09-14T09:14:53.268Z,7.72
2022-09-14T09:17:56.575Z,8.35
2022-09-14T09:21:01.702Z,7.60
2022-09-14T09:24:16.908Z,8.07
2022-09-14T09:27:18.211Z,7.03
2022-09-14T09:30:19.527Z,6.43
2022-09-14T09:33:25.094Z,6.70
2022-09-14T09:36:28.940Z,6.88
2022-09-14T09:39:31.054Z,6.18
2022-09-14T09:42:32.297Z,6.53
2022-09-14T09:45:52.173Z,5.80
2022-09-14T09:48:54.068Z,6.68
2022-09-14T09:51:55.747Z,6.72
2022-09-14T09:54:57.746Z,5.43
2022-09-14T09:58:18.925Z,7.70
2022-09-14T10:01:20.315Z,7.95
2022-09-14T10:04:22.998Z,7.18
2022-09-14T10:07:24.665Z,6.55
2022-09-14T10:10:39.232Z,6.93
2022-09-14T10:13:41.114Z,5.38
2022-09-14T10:16:42.396Z,6.75
2022-09-14T10:19:48.749Z,6.55
2022-09-14T10:22:50.096Z,6.93
2022-09-14T10:25:52.517Z,7.28
2022-09-14T10:28:53.812Z,5.90
2022-09-14T10:31:59.902Z,5.78
2022-09-14T10:35:01.224Z,5.45
2022-09-14T10:38:24.598Z,6.63
2022-09-14T10:41:31.991Z,6.60
2022-09-14T10:44:48.186Z,6.07
2022-09-14T10:48:02.689Z,6.22
2022-09-14T10:51:23.322Z,8.18
2022-09-14T10:54:30.988Z,7.65
2022-09-14T10:57:42.472Z,8.18
2022-09-14T11:01:07.266Z,8.07
2022-09-14T11:04:23.919Z,6.97
2022-09-14T11:07:38.747Z,6.93
2022-09-14T11:10:58.819Z,6.03
2022-09-14T11:14:06.216Z,7.00
2022-09-14T11:17:10.315Z,6.82
2022-09-14T11:20:17.628Z,5.78
2022-09-14T11:23:37.834Z,5.40
2022-09-14T11:26:42.477Z,5.25
2022-09-14T11:29:50.071Z,6.25
2022-09-14T11:32:54.492Z,5.97
2022-09-14T11:36:01.750Z,6.72
2022-09-14T11:39:07.018Z,5.40
2022-09-14T11:42:22.922Z,6.55
2022-09-14T11:45:30.150Z,6.07
2022-09-14T11:48:52.555Z,5.78
2022-09-14T11:51:55.941Z,4.75
2022-09-14T11:54:57.440Z,5.80
2022-09-14T11:57:59.896Z,5.57
2022-09-14T12:01:03.777Z,6.47
2022-09-14T12:04:09.891Z,5.05
2022-09-14T12:07:11.178Z,6.07
2022-09-14T12:10:18.345Z,6.95
2022-09-14T12:13:20.162Z,6.05
2022-09-14T12:16:21.450Z,5.40
2022-09-14T12:19:26.268Z,5.07
2022-09-14T12:22:32.283Z,7.85
2022-09-14T12:25:34.312Z,7.38
2022-09-14T12:28:35.918Z,6.30
2022-09-14T12:31:47.834Z,8.13
2022-09-14T12:35:09.030Z,7.28
2022-09-14T12:38:29.125Z,7.22
2022-09-14T12:41:36.230Z,6.45
2022-09-14T12:44:41.637Z,7.38
2022-09-14T12:47:52.239Z,6.63
2022-09-14T12:50:54.048Z,7.65
2022-09-14T12:54:01.404Z,6.90
2022-09-14T12:57:35.024Z,7.15
2022-09-14T13:00:47.035Z,7.00
2022-09-14T13:03:50.329Z,5.85
2022-09-14T13:06:52.642Z,6.82
2022-09-14T13:09:55.097Z,7.18
2022-09-14T13:12:56.380Z,6.53
2022-09-14T13:16:01.664Z,7.55
2022-09-14T13:19:04.854Z,6.72
2022-09-14T13:22:16.916Z,7.65
2022-09-14T13:25:44.447Z,5.15
2022-09-14T13:28:46.523Z,6.15
2022-09-14T13:31:47.821Z,6.25
2022-09-14T13:34:49.154Z,5.63
2022-09-14T13:37:50.703Z,6.20
2022-09-14T13:40:53.544Z,6.65
2022-09-14T13:43:56.039Z,6.10
2022-09-14T13:46:58.811Z,6.00
2022-09-14T13:50:00.546Z,6.28
2022-09-14T13:53:03.913Z,5.43
2022-09-14T13:56:35.231Z,6.15
2022-09-14T13:59:36.477Z,6.53
2022-09-14T14:02:46.071Z,5.78
2022-09-14T14:05:47.429Z,4.88
2022-09-14T14:08:53.162Z,6.43
2022-09-14T14:11:55.145Z,5.20
2022-09-14T14:14:57.859Z,5.53
2022-09-14T14:17:59.339Z,6.13
2022-09-14T14:21:19.535Z,4.28
2022-09-14T14:24:28.101Z,4.50
2022-09-14T14:27:37.498Z,7.45
2022-09-14T14:30:40.248Z,2.67
2022-09-14T14:33:47.920Z,2.80
2022-09-14T14:36:50.387Z,2.45
2022-09-14T14:39:51.758Z,2.75
2022-09-14T14:42:53.911Z,3.05
2022-09-14T14:45:56.855Z,4.30
2022-09-14T14:48:58.127Z,3.80
2022-09-14T14:51:59.388Z,3.65
2022-09-14T14:55:01.401Z,3.85
2022-09-14T14:58:04.618Z,2.58
2022-09-14T15:01:05.981Z,3.53
2022-09-14T15:04:07.235Z,3.47
2022-09-14T15:07:08.519Z,3.13
2022-09-14T15:10:13.190Z,2.45
2022-09-14T15:13:14.497Z,1.98
2022-09-14T15:16:16.266Z,2.58
2022-09-14T15:19:17.623Z,2.55
2022-09-14T15:22:19.727Z,2.47
2022-09-14T15:25:21.166Z,2.97
2022-09-14T15:28:22.428Z,1.83
2022-09-14T15:31:23.699Z,1.88
2022-09-14T15:34:25.069Z,2.47
2022-09-14T15:37:26.318Z,2.20
2022-09-14T15:40:27.628Z,1.83
2022-09-14T15:43:29.065Z,2.70
2022-09-14T15:46:30.661Z,2.10
2022-09-14T15:49:31.899Z,1.75
2022-09-14T15:52:37.100Z,2.10
2022-09-14T15:55:39.406Z,1.77
2022-09-14T15:58:43.737Z,1.92
2022-09-14T16:01:48.714Z,1.05
2022-09-14T16:04:50.052Z,1.73
2022-09-14T16:07:54.912Z,2.17
2022-09-14T16:10:59.895Z,3.10
2022-09-14T16:14:01.708Z,3.00
2022-09-14T16:17:03.263Z,1.23
2022-09-14T16:20:05.192Z,2.30
2022-09-14T16:23:06.480Z,1.25
2022-09-14T16:26:10.191Z,2.53
2022-09-14T16:29:13.194Z,1.92
2022-09-14T16:32:14.503Z,2.55
2022-09-14T16:35:15.758Z,2.42
2022-09-14T16:38:16.990Z,2.20
2022-09-14T16:41:18.452Z,1.67
2022-09-14T16:44:21.181Z,2.08
2022-09-14T16:47:22.422Z,1.92
2022-09-14T16:50:23.781Z,2.10
2022-09-14T16:53:25.108Z,2.08
2022-09-14T16:56:27.798Z,2.05
2022-09-14T16:59:29.036Z,1.60
2022-09-14T17:02:30.320Z,2.72
2022-09-14T17:05:31.735Z,2.42
2022-09-14T17:08:33.628Z,2.50
2022-09-14T17:11:36.026Z,2.33
2022-09-14T17:14:37.415Z,1.88
2022-09-14T17:17:38.769Z,1.48
2022-09-14T17:20:40.058Z,2.40
2022-09-14T17:23:41.361Z,2.72
2022-09-14T17:26:42.833Z,2.05
2022-09-14T17:29:44.293Z,2.25
2022-09-14T17:32:45.557Z,2.33
2022-09-14T17:35:48.104Z,2.33
2022-09-14T17:38:50.005Z,2.97
2022-09-14T17:41:51.263Z,2.50
2022-09-14T17:44:52.502Z,2.33
2022-09-14T17:47:53.751Z,3.83
2022-09-14T17:50:55.209Z,2.10
2022-09-14T17:53:57.955Z,2.40
2022-09-14T17:56:59.249Z,2.78
2022-09-14T18:00:00.515Z,2.95
2022-09-14T18:03:01.773Z,3.72
2022-09-14T18:06:03.856Z,2.70
2022-09-14T18:09:06.818Z,3.08
2022-09-14T18:12:10.183Z,4.15
2022-09-14T18:15:15.118Z,2.33
2022-09-14T18:18:16.639Z,2.25
2022-09-14T18:21:18.617Z,3.17
2022-09-14T18:24:20.310Z,2.92
2022-09-14T18:27:22.184Z,2.10
2022-09-14T18:30:23.448Z,1.73
2022-09-14T18:33:24.690Z,1.58
2022-09-14T18:36:28.836Z,1.48
2022-09-14T18:39:30.672Z,1.67
2022-09-14T18:42:31.963Z,2.40
2022-09-14T18:45:33.623Z,2.40
2022-09-14T18:48:34.901Z,3.65
2022-09-14T18:51:36.152Z,2.33
2022-09-14T18:54:37.423Z,1.60
2022-09-14T18:57:39.463Z,1.55
2022-09-14T19:00:45.145Z,1.48
2022-09-14T19:03:46.491Z,2.10
2022-09-14T19:06:47.733Z,1.50
2022-09-14T19:09:49.016Z,3.03
2022-09-14T19:12:50.273Z,1.52
2022-09-14T19:15:51.588Z,1.38
2022-09-14T19:18:52.881Z,2.83
2022-09-14T19:21:54.179Z,2.05
2022-09-14T19:24:55.446Z,2.10
2022-09-14T19:27:56.692Z,2.70
2022-09-14T19:30:57.996Z,2.40
2022-09-14T19:34:00.288Z,2.30
2022-09-14T19:37:01.648Z,2.15
2022-09-14T19:40:03.238Z,4.00
2022-09-14T19:43:04.552Z,2.72
2022-09-14T19:46:06.819Z,2.65
2022-09-14T19:49:28.381Z,3.28
2022-09-14T19:52:29.839Z,3.00
2022-09-14T19:55:31.324Z,2.97
2022-09-14T19:58:39.622Z,3.97
2022-09-14T20:01:40.967Z,2.92
2022-09-14T20:04:42.486Z,4.13
2022-09-14T20:07:43.787Z,4.72
2022-09-14T20:10:45.053Z,3.83
2022-09-14T20:13:47.598Z,3.95
2022-09-14T20:16:50.286Z,3.47
2022-09-14T20:19:51.531Z,2.97
2022-09-14T20:22:52.849Z,3.50
2022-09-14T20:25:54.087Z,3.60
2022-09-14T20:28:56.338Z,4.85
2022-09-14T20:31:58.234Z,3.83
2022-09-14T20:34:59.503Z,3.60
2022-09-14T20:38:00.756Z,4.85
2022-09-14T20:41:03.749Z,3.40
2022-09-14T20:44:05.583Z,3.70
2022-09-14T20:47:06.915Z,5.88
2022-09-14T20:50:08.246Z,4.95
2022-09-14T20:53:09.502Z,5.57
2022-09-14T20:56:11.854Z,6.93
2022-09-14T20:59:14.914Z,7.88
2022-09-14T21:02:16.275Z,7.38
2022-09-14T21:05:17.589Z,5.10
2022-09-14T21:08:18.894Z,6.43
2022-09-14T21:11:21.794Z,5.90
2022-09-14T21:14:23.225Z,6.53
2022-09-14T21:17:24.588Z,7.38
2022-09-14T21:20:25.894Z,5.75
2022-09-14T21:23:27.442Z,6.18
2022-09-14T21:26:29.334Z,5.82
2022-09-14T21:29:31.091Z,5.32
2022-09-14T21:32:32.345Z,7.82
2022-09-14T21:35:33.833Z,5.72
2022-09-14T21:38:35.521Z,5.28
2022-09-14T21:41:37.585Z,5.32
2022-09-14T21:44:38.838Z,5.60
2022-09-14T21:47:40.103Z,7.30
2022-09-14T21:50:44.129Z,4.80
2022-09-14T21:53:49.835Z,7.03
2022-09-14T21:56:52.139Z,7.90
2022-09-14T21:59:53.375Z,6.80
2022-09-14T22:02:54.650Z,5.68
2022-09-14T22:05:56.721Z,7.07
2022-09-14T22:08:59.767Z,5.75
2022-09-14T22:12:01.015Z,6.45
2022-09-14T22:15:02.235Z,7.30
2022-09-14T22:18:03.545Z,6.30
2022-09-14T22:21:05.327Z,6.40
2022-09-14T22:24:09.540Z,7.30
2022-09-14T22:27:10.904Z,5.63
2022-09-14T22:30:12.396Z,6.72
2022-09-14T22:33:13.757Z,5.65
2022-09-14T22:36:15.040Z,5.75
2022-09-14T22:39:16.276Z,7.20
2022-09-14T22:42:17.522Z,6.13
2022-09-14T22:45:18.774Z,6.63
2022-09-14T22:48:20.300Z,6.07
2022-09-14T22:51:25.856Z,5.28
2022-09-14T22:54:27.087Z,5.03
2022-09-14T22:57:28.331Z,5.72
2022-09-14T23:00:29.893Z,5.63
2022-09-14T23:03:31.157Z,6.43
2022-09-14T23:06:34.166Z,5.40
2022-09-14T23:09:35.394Z,5.13
2022-09-14T23:12:37.021Z,5.22
2022-09-14T23:15:39.029Z,5.93
2022-09-14T23:18:40.304Z,5.05
2022-09-14T23:21:41.553Z,6.82
2022-09-14T23:24:42.926Z,6.32
2022-09-14T23:27:44.153Z,5.85
2022-09-14T23:30:51.992Z,5.43
2022-09-14T23:33:54.042Z,6.35
2022-09-14T23:36:57.018Z,8.30
2022-09-14T23:39:58.297Z,5.15
2022-09-14T23:42:59.581Z,6.43
2022-09-14T23:46:00.896Z,5.22
2022-09-14T23:49:02.187Z,5.35
2022-09-14T23:52:03.519Z,6.57
2022-09-14T23:55:05.030Z,5.57
2022-09-14T23:58:06.265Z,6.43
